Time;durP1;ratioP1;P1;durP2;ratioP2;P2;SDS_P1;SDS_P2;PMS_P1;PMS_P2;Temp;Humidity;BMP_temperature;BMP_pressure;BME280_temperature;BME280_humidity;BME280_pressure;Samples;Min_cycle;Max_cycle;Signal;HPM_P1;HPM_P2
2021/11/11 00:01:31;;;;;;;24.25;13.57;;;8.70;99.90;;;;;;5074550;28;20042;-83
2021/11/11 00:03:57;;;;;;;25.27;13.07;;;8.70;99.90;;;;;;5088466;28;20085;-83
2021/11/11 00:06:23;;;;;;;21.35;11.23;;;8.70;99.90;;;;;;5078836;28;20493;-84
2021/11/11 00:08:50;;;;;;;20.85;10.82;;;8.60;99.90;;;;;;5055331;28;20052;-84
2021/11/11 00:11:15;;;;;;;22.08;9.90;;;8.60;99.90;;;;;;5090872;28;20058;-84
2021/11/11 00:13:41;;;;;;;18.42;11.57;;;8.70;99.90;;;;;;5080746;28;20481;-82
2021/11/11 00:16:08;;;;;;;19.00;11.98;;;8.60;99.90;;;;;;5063619;28;20059;-83
2021/11/11 00:18:33;;;;;;;22.63;12.73;;;8.60;99.90;;;;;;5085557;28;20044;-85
2021/11/11 00:20:59;;;;;;;11.05;9.23;;;8.60;99.90;;;;;;5072662;28;20532;-81
2021/11/11 00:23:25;;;;;;;19.65;7.80;;;8.70;99.90;;;;;;5067575;28;20070;-82
2021/11/11 00:25:51;;;;;;;21.42;10.90;;;8.60;99.90;;;;;;5084290;28;20151;-82
2021/11/11 00:28:16;;;;;;;13.73;9.05;;;8.70;99.90;;;;;;5079124;28;20145;-84
2021/11/11 00:30:42;;;;;;;25.67;14.05;;;8.70;99.90;;;;;;5082588;28;20040;-83
2021/11/11 00:33:08;;;;;;;18.17;11.65;;;8.70;99.90;;;;;;5077325;28;20496;-83
2021/11/11 00:35:34;;;;;;;16.13;10.30;;;8.80;99.90;;;;;;5072795;28;20070;-83
2021/11/11 00:38:00;;;;;;;23.73;9.02;;;8.80;99.90;;;;;;5067444;28;20057;-84
2021/11/11 00:40:31;;;;;;;12.43;8.70;;;8.80;99.90;;;;;;5063002;28;20044;-86
2021/11/11 00:42:58;;;;;;;29.88;11.75;;;8.80;99.90;;;;;;5089395;28;20052;-83
2021/11/11 00:45:25;;;;;;;15.68;11.73;;;8.80;99.90;;;;;;5090334;28;20063;-83
2021/11/11 00:47:55;;;;;;;21.75;11.25;;;8.80;99.90;;;;;;5081088;28;20044;-84
2021/11/11 00:50:24;;;;;;;17.17;9.73;;;8.80;99.90;;;;;;5081582;28;20039;-85
2021/11/11 00:52:50;;;;;;;19.38;10.90;;;8.80;99.90;;;;;;5088253;28;20465;-84
2021/11/11 00:55:16;;;;;;;20.02;10.75;;;8.80;99.90;;;;;;5092422;28;20063;-84
2021/11/11 00:57:42;;;;;;;20.27;9.30;;;8.80;99.90;;;;;;5091087;28;20078;-83
2021/11/11 01:00:12;;;;;;;22.10;10.43;;;8.80;99.90;;;;;;5081484;28;20072;-81
2021/11/11 01:02:38;;;;;;;13.73;7.82;;;8.80;99.90;;;;;;5090423;28;20082;-81
2021/11/11 01:05:06;;;;;;;22.35;11.25;;;8.80;99.90;;;;;;5082319;28;20043;-84
2021/11/11 01:07:33;;;;;;;18.75;8.57;;;8.80;99.90;;;;;;5052053;28;20044;-84
2021/11/11 01:09:59;;;;;;;19.42;11.07;;;8.80;99.90;;;;;;5081603;28;20078;-80
2021/11/11 01:12:25;;;;;;;15.73;8.50;;;8.90;99.90;;;;;;5082567;28;20040;-81
2021/11/11 01:14:51;;;;;;;10.18;8.88;;;8.80;99.90;;;;;;5071623;28;20036;-81
2021/11/11 01:17:16;;;;;;;14.05;8.90;;;8.80;99.90;;;;;;5091630;28;20080;-82
2021/11/11 01:19:42;;;;;;;18.23;11.00;;;8.80;99.90;;;;;;5073522;28;20058;-80
2021/11/11 01:22:08;;;;;;;12.57;8.88;;;8.90;99.90;;;;;;5094326;28;20476;-83
2021/11/11 01:24:34;;;;;;;19.95;8.85;;;8.80;99.90;;;;;;5081376;28;20489;-83
2021/11/11 01:27:00;;;;;;;22.13;8.07;;;8.90;99.90;;;;;;5077109;28;20093;-80
2021/11/11 01:29:25;;;;;;;12.85;7.72;;;8.80;99.90;;;;;;5073065;28;20051;-79
2021/11/11 01:31:52;;;;;;;17.08;8.70;;;8.80;99.90;;;;;;5087235;28;20412;-79
2021/11/11 01:34:17;;;;;;;;;;;8.80;99.90;;;;;;5090017;28;20051;-79
2021/11/11 01:36:43;;;;;;;13.02;9.18;;;8.80;99.90;;;;;;5075511;28;19916;-79
2021/11/11 01:39:09;;;;;;;;;;;8.80;99.90;;;;;;5075069;28;20397;-81
2021/11/11 01:41:35;;;;;;;12.65;7.57;;;8.80;99.90;;;;;;5084139;28;19920;-83
2021/11/11 01:44:01;;;;;;;;;;;8.80;99.90;;;;;;5077222;28;20070;-80
2021/11/11 01:46:27;;;;;;;13.27;7.75;;;8.80;99.90;;;;;;5091061;28;19916;-83
2021/11/11 01:48:53;;;;;;;12.38;8.77;;;8.90;99.90;;;;;;5093291;28;20039;-79
2021/11/11 01:51:22;;;;;;;17.10;9.07;;;8.80;99.90;;;;;;5072848;28;20385;-82
2021/11/11 01:53:49;;;;;;;10.93;7.60;;;8.80;99.90;;;;;;5075514;28;20071;-79
2021/11/11 01:56:15;;;;;;;11.18;6.13;;;8.80;99.90;;;;;;5089652;28;20119;-82
2021/11/11 01:58:41;;;;;;;10.88;8.18;;;9.10;99.90;;;;;;5086235;28;20123;-80
2021/11/11 02:01:07;;;;;;;13.57;7.47;;;8.80;99.90;;;;;;5085326;28;20048;-81
2021/11/11 02:03:33;;;;;;;17.27;8.50;;;8.80;99.90;;;;;;5091833;28;20096;-80
2021/11/11 02:05:59;;;;;;;16.85;7.05;;;8.80;99.90;;;;;;5085776;28;20051;-82
2021/11/11 02:08:25;;;;;;;10.93;8.05;;;8.80;99.90;;;;;;5093025;28;20040;-81
2021/11/11 02:10:51;;;;;;;17.13;10.40;;;8.80;99.90;;;;;;5068904;28;20037;-82
2021/11/11 02:13:17;;;;;;;13.30;8.10;;;8.80;99.90;;;;;;5091697;28;20047;-82
2021/11/11 02:15:43;;;;;;;15.88;7.25;;;8.80;99.90;;;;;;5087874;28;20389;-81
2021/11/11 02:18:09;;;;;;;12.15;8.13;;;8.70;99.90;;;;;;5080895;28;20055;-82
2021/11/11 02:20:39;;;;;;;11.90;8.23;;;8.90;99.90;;;;;;5090028;28;20052;-80
2021/11/11 02:23:10;;;;;;;11.23;8.18;;;8.70;99.90;;;;;;5089439;28;20345;-79
2021/11/11 02:25:36;;;;;;;15.88;7.25;;;8.70;99.90;;;;;;5092179;28;20048;-80
2021/11/11 02:28:08;;;;;;;15.25;7.63;;;8.70;99.90;;;;;;5091011;28;20044;-82
2021/11/11 02:30:35;;;;;;;16.55;8.05;;;8.70;99.90;;;;;;5091851;28;20036;-82
2021/11/11 02:33:07;;;;;;;19.25;8.05;;;8.70;99.90;;;;;;5091406;28;20385;-82
2021/11/11 02:35:33;;;;;;;12.50;6.70;;;8.70;99.90;;;;;;5086399;28;20084;-82
2021/11/11 02:38:00;;;;;;;12.32;7.53;;;8.70;99.90;;;;;;5092261;28;20176;-82
2021/11/11 02:40:28;;;;;;;17.45;8.65;;;8.70;99.90;;;;;;5089274;28;20062;-81
2021/11/11 02:42:54;;;;;;;23.08;9.43;;;8.70;99.90;;;;;;5092446;28;20042;-82
2021/11/11 02:45:21;;;;;;;;;;;8.70;99.90;;;;;;5080531;28;20106;-80
2021/11/11 02:47:47;;;;;;;8.77;6.32;;;8.80;99.90;;;;;;5091805;28;19920;-81
2021/11/11 02:50:13;;;;;;;;;;;8.70;99.90;;;;;;5073946;28;20085;-80
2021/11/11 02:52:39;;;;;;;16.58;7.65;;;8.70;99.90;;;;;;5091986;28;19920;-81
2021/11/11 02:55:06;;;;;;;20.10;8.35;;;8.80;99.90;;;;;;5091905;28;20076;-82
2021/11/11 02:57:38;;;;;;;8.70;5.43;;;8.80;99.90;;;;;;5092517;28;20051;-82
2021/11/11 03:00:22;;;;;;;15.18;7.40;;;8.80;99.90;;;;;;5088307;28;20056;-81
2021/11/11 03:02:50;;;;;;;8.88;7.25;;;8.80;99.90;;;;;;5090870;28;20047;-81
2021/11/11 03:05:22;;;;;;;8.38;7.55;;;8.80;99.90;;;;;;5080950;28;20047;-78
2021/11/11 03:07:48;;;;;;;16.33;8.18;;;8.80;99.90;;;;;;5073019;28;20058;-80
2021/11/11 03:10:17;;;;;;;10.25;6.18;;;8.80;99.90;;;;;;5090906;28;20036;-80
2021/11/11 03:12:44;;;;;;;11.90;6.97;;;8.80;99.90;;;;;;5082119;28;20041;-81
2021/11/11 03:15:11;;;;;;;13.82;8.50;;;8.80;99.90;;;;;;5084351;28;20039;-79
2021/11/11 03:17:38;;;;;;;13.45;8.50;;;8.80;99.90;;;;;;5081476;28;20106;-80
2021/11/11 03:20:04;;;;;;;14.23;7.13;;;8.80;99.90;;;;;;5056987;28;20127;-79
2021/11/11 03:22:30;;;;;;;15.40;8.35;;;8.80;99.90;;;;;;5091419;28;20040;-80
2021/11/11 03:24:57;;;;;;;7.88;7.10;;;8.80;99.90;;;;;;5074634;28;20369;-79
2021/11/11 03:27:23;;;;;;;8.80;6.68;;;8.80;99.90;;;;;;5071991;28;20123;-77
2021/11/11 03:29:49;;;;;;;8.13;5.88;;;8.70;99.90;;;;;;5078402;28;20135;-80
2021/11/11 03:32:16;;;;;;;13.30;6.93;;;8.70;99.90;;;;;;5088234;28;20040;-80
2021/11/11 03:34:41;;;;;;;;;;;8.70;99.90;;;;;;5092153;28;20055;-79
2021/11/11 03:37:08;;;;;;;13.68;8.93;;;8.80;99.90;;;;;;5086708;28;20365;-80
2021/11/11 03:39:35;;;;;;;14.93;7.82;;;8.80;99.90;;;;;;5082747;28;20054;-81
2021/11/11 03:42:02;;;;;;;13.57;6.80;;;8.80;99.90;;;;;;5076214;28;20060;-78
2021/11/11 03:44:27;;;;;;;14.15;9.05;;;8.80;99.90;;;;;;5088740;28;20518;-79
2021/11/11 03:46:56;;;;;;;12.65;6.05;;;8.80;99.90;;;;;;5084872;28;20047;-80
2021/11/11 03:49:23;;;;;;;10.73;6.55;;;8.70;99.90;;;;;;5090256;28;20036;-82
2021/11/11 03:51:49;;;;;;;13.32;7.00;;;8.80;99.90;;;;;;5090691;28;20481;-79
2021/11/11 03:54:16;;;;;;;13.60;8.70;;;8.80;99.90;;;;;;5090498;28;20051;-81
2021/11/11 03:56:43;;;;;;;10.95;6.00;;;8.70;99.90;;;;;;5090975;28;20503;-80
2021/11/11 03:59:10;;;;;;;15.52;7.85;;;8.80;99.90;;;;;;5090575;28;20044;-81
2021/11/11 04:01:37;;;;;;;11.65;7.82;;;8.80;99.90;;;;;;5080188;28;20071;-80
2021/11/11 04:04:04;;;;;;;19.17;8.18;;;8.80;99.90;;;;;;5087781;28;20032;-81
2021/11/11 04:06:31;;;;;;;19.05;7.85;;;8.80;99.90;;;;;;5082081;28;20105;-79
2021/11/11 04:08:59;;;;;;;18.98;8.93;;;8.80;99.90;;;;;;5097163;28;20123;-82
2021/11/11 04:11:26;;;;;;;16.70;10.77;;;8.80;99.90;;;;;;5083696;28;20096;-84
2021/11/11 04:13:52;;;;;;;17.23;8.55;;;8.80;99.90;;;;;;5076711;28;20544;-81
2021/11/11 04:16:18;;;;;;;9.73;7.53;;;8.80;99.90;;;;;;5076701;28;20473;-81
2021/11/11 04:18:44;;;;;;;12.75;7.15;;;8.80;99.90;;;;;;5065881;28;20047;-82
2021/11/11 04:21:10;;;;;;;16.55;9.40;;;8.80;99.90;;;;;;5066844;28;20546;-81
2021/11/11 04:23:36;;;;;;;20.98;8.05;;;8.80;99.90;;;;;;5074172;28;20082;-81
2021/11/11 04:26:14;;;;;;;;;;;9.00;99.90;;;;;;5084982;28;20039;-79
2021/11/11 04:31:20;;;;;;;19.80;8.13;;;8.80;99.90;;;;;;5067274;28;20108;-80
2021/11/11 04:33:48;;;;;;;16.85;9.50;;;8.80;99.90;;;;;;5094339;28;20110;-81
2021/11/11 05:03:13;;;;;;;19.52;9.25;;;8.70;99.90;;;;;;5090948;28;20500;-83
2021/11/11 05:05:40;;;;;;;13.90;7.38;;;8.80;99.90;;;;;;5091545;28;20473;-81
2021/11/11 05:08:06;;;;;;;27.48;9.57;;;8.80;99.90;;;;;;5075054;28;20051;-80
2021/11/11 05:10:32;;;;;;;12.73;7.78;;;8.80;99.90;;;;;;5074155;28;20029;-81
2021/11/11 05:12:57;;;;;;;;;;;8.80;99.90;;;;;;5096223;28;20036;-80
2021/11/11 05:15:24;;;;;;;8.40;6.90;;;8.70;99.90;;;;;;5093005;28;19916;-82
2021/11/11 05:17:50;;;;;;;14.77;8.95;;;8.80;99.90;;;;;;5089291;28;20043;-80
2021/11/11 05:20:18;;;;;;;13.25;7.75;;;8.80;99.90;;;;;;5094837;28;20051;-79
2021/11/11 05:22:45;;;;;;;13.23;9.15;;;8.80;99.90;;;;;;5096910;28;20050;-82
2021/11/11 05:25:13;;;;;;;15.07;7.38;;;8.80;99.90;;;;;;5094795;28;20072;-82
2021/11/11 05:27:41;;;;;;;11.10;7.72;;;8.80;99.90;;;;;;5075685;28;20051;-84
2021/11/11 05:30:08;;;;;;;17.25;7.25;;;8.80;99.90;;;;;;5095933;28;20048;-80
2021/11/11 05:32:34;;;;;;;17.38;9.55;;;8.80;99.90;;;;;;5095291;28;20074;-82
2021/11/11 05:35:06;;;;;;;18.33;8.07;;;8.80;99.90;;;;;;5087443;28;20064;-79
2021/11/11 05:37:31;;;;;;;11.98;7.82;;;8.80;99.90;;;;;;5093219;28;20401;-82
2021/11/11 05:39:57;;;;;;;24.60;9.05;;;8.80;99.90;;;;;;5088363;28;20044;-80
2021/11/11 05:42:23;;;;;;;17.05;8.00;;;8.80;99.90;;;;;;5095467;28;20093;-82
2021/11/11 05:44:49;;;;;;;16.80;9.55;;;8.80;99.90;;;;;;5092150;28;20406;-80
2021/11/11 05:47:15;;;;;;;9.43;6.03;;;8.90;99.90;;;;;;5092690;28;20044;-80
2021/11/11 05:49:41;;;;;;;17.35;8.52;;;8.80;99.90;;;;;;5078858;28;20039;-83
2021/11/11 05:52:07;;;;;;;13.20;7.80;;;8.90;99.90;;;;;;5090742;28;20043;-81
2021/11/11 05:54:37;;;;;;;18.27;7.47;;;8.80;99.90;;;;;;5096040;28;20077;-80
2021/11/11 05:57:03;;;;;;;24.30;9.13;;;8.80;99.90;;;;;;5094158;28;20068;-83
2021/11/11 05:59:29;;;;;;;14.93;9.75;;;8.90;99.90;;;;;;5100014;28;20044;-80
2021/11/11 06:01:55;;;;;;;17.90;10.82;;;8.90;99.90;;;;;;5084021;28;20046;-83
2021/11/11 06:04:21;;;;;;;18.15;8.45;;;8.90;99.90;;;;;;5076731;28;20098;-81
2021/11/11 06:06:47;;;;;;;18.85;9.25;;;8.90;99.90;;;;;;5072617;28;20036;-82
2021/11/11 06:09:12;;;;;;;17.45;10.07;;;8.90;99.90;;;;;;5083466;28;20211;-82
2021/11/11 06:11:38;;;;;;;10.55;8.32;;;9.00;99.90;;;;;;5076045;28;20409;-82
2021/11/11 06:14:10;;;;;;;14.13;8.02;;;8.90;99.90;;;;;;5070519;28;20066;-81
2021/11/11 06:16:35;;;;;;;17.10;8.55;;;8.90;99.90;;;;;;5090481;28;20040;-82
2021/11/11 06:19:01;;;;;;;15.68;7.57;;;8.90;99.90;;;;;;5060449;28;20411;-81
2021/11/11 06:21:27;;;;;;;16.52;9.25;;;8.90;99.90;;;;;;5093210;28;20071;-81
2021/11/11 06:23:54;;;;;;;18.70;10.10;;;9.00;99.90;;;;;;5070072;28;20032;-82
2021/11/11 06:26:22;;;;;;;24.98;9.88;;;8.90;99.90;;;;;;5092294;28;20069;-84
2021/11/11 06:28:48;;;;;;;20.13;9.85;;;9.00;99.90;;;;;;5090106;28;20500;-84
2021/11/11 06:31:14;;;;;;;;;;;9.00;99.90;;;;;;5072137;28;20028;-84
2021/11/11 06:33:40;;;;;;;11.95;8.40;;;9.00;99.90;;;;;;5070085;28;19916;-83
2021/11/11 06:36:06;;;;;;;;;;;9.00;99.90;;;;;;5070916;28;20173;-86
2021/11/11 06:38:31;;;;;;;18.27;9.95;;;9.00;99.90;;;;;;5068411;28;20003;-84
2021/11/11 06:40:57;;;;;;;22.38;15.45;;;9.00;99.90;;;;;;5087157;28;20087;-81
2021/11/11 06:43:23;;;;;;;22.00;12.18;;;9.00;99.90;;;;;;5092455;28;20055;-83
2021/11/11 06:45:49;;;;;;;13.90;10.43;;;9.00;99.90;;;;;;5074982;28;20410;-81
2021/11/11 06:48:15;;;;;;;15.55;10.45;;;9.10;99.90;;;;;;5082362;28;20052;-81
2021/11/11 06:50:43;;;;;;;21.42;9.60;;;9.00;99.90;;;;;;5091561;28;20098;-82
2021/11/11 06:53:11;;;;;;;13.85;12.50;;;9.00;99.90;;;;;;5077142;28;20390;-83
2021/11/11 06:55:39;;;;;;;19.98;11.40;;;9.00;99.90;;;;;;5067223;28;20040;-82
2021/11/11 06:58:06;;;;;;;18.08;11.10;;;9.00;99.90;;;;;;5088335;28;20051;-83
2021/11/11 07:00:32;;;;;;;31.25;16.65;;;9.00;99.90;;;;;;5081868;28;20343;-84
2021/11/11 07:02:58;;;;;;;23.15;12.30;;;9.00;99.90;;;;;;5077611;28;20051;-82
2021/11/11 07:05:24;;;;;;;23.42;15.68;;;9.10;99.90;;;;;;5087342;28;20481;-84
2021/11/11 07:07:50;;;;;;;27.83;14.20;;;9.10;99.90;;;;;;5083355;28;20072;-82
2021/11/11 07:10:18;;;;;;;22.52;12.70;;;9.10;99.90;;;;;;5086940;28;20489;-82
2021/11/11 07:12:44;;;;;;;20.25;12.00;;;9.10;99.90;;;;;;5091874;28;20044;-81
2021/11/11 07:15:13;;;;;;;35.67;17.88;;;9.10;99.90;;;;;;5070115;28;20040;-82
2021/11/11 07:17:39;;;;;;;19.75;13.10;;;9.10;99.90;;;;;;5091172;28;20052;-82
2021/11/11 07:20:09;;;;;;;31.55;15.68;;;9.10;99.90;;;;;;5092373;28;20044;-81
2021/11/11 07:22:37;;;;;;;24.77;14.27;;;9.10;99.90;;;;;;5093573;28;20044;-81
2021/11/11 07:25:03;;;;;;;25.00;13.10;;;9.10;99.90;;;;;;5092301;28;20040;-81
2021/11/11 07:27:30;;;;;;;26.38;14.43;;;9.10;99.90;;;;;;5095159;28;20079;-80
2021/11/11 07:29:56;;;;;;;20.67;12.80;;;9.20;99.90;;;;;;5074038;28;20040;-83
2021/11/11 07:32:22;;;;;;;30.73;14.98;;;9.10;99.90;;;;;;5084363;28;20044;-81
2021/11/11 07:34:47;;;;;;;23.67;15.50;;;9.20;99.90;;;;;;5091376;28;20037;-77
2021/11/11 07:37:13;;;;;;;31.25;15.07;;;9.20;99.90;;;;;;5073340;28;20043;-82
2021/11/11 07:39:39;;;;;;;26.27;16.25;;;9.20;99.90;;;;;;5091080;28;20048;-77
2021/11/11 07:42:05;;;;;;;33.92;14.75;;;9.20;99.90;;;;;;5089769;28;20465;-78
2021/11/11 07:44:30;;;;;;;33.17;21.52;;;9.20;99.90;;;;;;5090666;28;20047;-79
2021/11/11 07:46:56;;;;;;;17.85;13.73;;;9.30;99.90;;;;;;5085897;28;20075;-81
2021/11/11 07:49:22;;;;;;;21.67;13.73;;;9.30;99.90;;;;;;5081335;28;20619;-79
2021/11/11 07:51:48;;;;;;;25.75;14.85;;;9.20;99.90;;;;;;5081259;28;20040;-79
2021/11/11 07:54:14;;;;;;;23.10;13.70;;;9.30;99.90;;;;;;5077866;28;20063;-80
2021/11/11 07:56:40;;;;;;;22.20;11.48;;;9.30;99.90;;;;;;5083885;28;20032;-81
2021/11/11 07:59:06;;;;;;;;;;;9.30;99.90;;;;;;5089237;28;20054;-82
2021/11/11 08:01:32;;;;;;;21.88;13.52;;;9.40;99.90;;;;;;5066426;28;19999;-77
2021/11/11 08:03:59;;;;;;;27.80;14.48;;;9.40;99.90;;;;;;5080394;28;20044;-79
2021/11/11 08:06:25;;;;;;;18.15;14.40;;;9.40;99.90;;;;;;5084728;28;20083;-79
2021/11/11 08:08:51;;;;;;;26.63;15.60;;;9.40;99.90;;;;;;5085107;28;20152;-80
2021/11/11 08:11:17;;;;;;;27.33;15.40;;;9.40;99.90;;;;;;5083321;28;20119;-79
2021/11/11 08:13:43;;;;;;;26.67;16.67;;;9.40;99.90;;;;;;5086674;28;20036;-81
2021/11/11 08:16:09;;;;;;;;;;;9.50;99.90;;;;;;5088320;28;20039;-82
2021/11/11 08:18:35;;;;;;;28.05;14.38;;;9.60;99.90;;;;;;5078542;28;19920;-79
2021/11/11 08:21:01;;;;;;;24.08;13.50;;;9.60;99.90;;;;;;5084471;28;20035;-81
2021/11/11 08:23:26;;;;;;;18.60;10.27;;;9.60;99.90;;;;;;5081553;28;20083;-78
2021/11/11 08:25:53;;;;;;;22.65;14.05;;;9.60;99.90;;;;;;5078696;28;20504;-79
2021/11/11 08:28:19;;;;;;;;;;;9.70;99.90;;;;;;5078016;28;20032;-80
2021/11/11 08:30:46;;;;;;;29.38;16.85;;;9.70;99.90;;;;;;5090808;28;20297;-79
2021/11/11 08:33:14;;;;;;;13.95;9.65;;;9.70;99.90;;;;;;5067357;28;20502;-75
2021/11/11 08:35:41;;;;;;;27.55;13.95;;;9.70;99.90;;;;;;5084610;28;20040;-78
2021/11/11 08:38:07;;;;;;;23.05;11.43;;;9.70;99.90;;;;;;5081667;28;20580;-80
2021/11/11 08:40:33;;;;;;;;;;;9.70;99.90;;;;;;5082738;28;20096;-79
2021/11/11 08:43:00;;;;;;;18.00;13.05;;;9.70;99.90;;;;;;5086887;28;19916;-80
2021/11/11 08:45:28;;;;;;;25.20;14.40;;;9.70;99.90;;;;;;5086358;28;20409;-78
2021/11/11 08:47:54;;;;;;;16.48;10.90;;;9.70;99.90;;;;;;5084853;28;20040;-79
2021/11/11 08:50:23;;;;;;;29.42;12.45;;;9.70;99.90;;;;;;5087001;28;20040;-78
2021/11/11 08:52:54;;;;;;;16.98;10.70;;;9.70;99.90;;;;;;5090793;28;20481;-78
2021/11/11 08:55:22;;;;;;;17.52;11.25;;;9.70;99.90;;;;;;5081212;28;20036;-80
2021/11/11 08:57:48;;;;;;;17.30;10.63;;;9.70;99.90;;;;;;5074601;28;20050;-78
2021/11/11 09:00:20;;;;;;;19.75;10.95;;;9.80;99.90;;;;;;5086605;28;20068;-79
2021/11/11 09:02:49;;;;;;;19.75;13.30;;;9.80;99.90;;;;;;5074720;28;20392;-79
2021/11/11 09:05:15;;;;;;;18.20;11.38;;;9.80;99.90;;;;;;5090083;28;20135;-79
2021/11/11 09:07:43;;;;;;;24.45;15.65;;;9.80;99.90;;;;;;5073762;28;20459;-79
2021/11/11 09:10:12;;;;;;;24.70;14.10;;;9.80;99.90;;;;;;5090126;28;20118;-78
2021/11/11 09:12:38;;;;;;;24.05;11.88;;;9.80;99.90;;;;;;5091008;28;20044;-78
2021/11/11 09:15:07;;;;;;;20.65;13.55;;;9.80;99.90;;;;;;5074225;28;20044;-79
2021/11/11 09:17:33;;;;;;;29.10;13.20;;;9.80;99.90;;;;;;5079767;28;20093;-77
2021/11/11 09:19:59;;;;;;;19.25;11.52;;;9.90;99.90;;;;;;5087039;28;20040;-78
2021/11/11 09:22:27;;;;;;;28.02;13.48;;;9.90;99.90;;;;;;5090177;28;20055;-79
2021/11/11 09:24:53;;;;;;;22.65;11.18;;;9.90;99.90;;;;;;5091465;28;20113;-77
2021/11/11 09:27:19;;;;;;;;;;;9.90;99.90;;;;;;5091395;28;20060;-79
2021/11/11 09:29:45;;;;;;;20.55;12.57;;;10.00;99.90;;;;;;5053581;28;20097;-79
2021/11/11 09:32:11;;;;;;;31.83;13.02;;;10.00;99.90;;;;;;5083636;28;20079;-80
2021/11/11 09:34:36;;;;;;;23.17;11.45;;;10.10;99.90;;;;;;5104824;28;20039;-79
2021/11/11 09:37:03;;;;;;;18.38;12.18;;;10.00;99.90;;;;;;5097835;28;20059;-79
2021/11/11 09:39:28;;;;;;;18.67;12.65;;;10.10;99.90;;;;;;5081404;28;20071;-77
2021/11/11 09:41:56;;;;;;;30.27;14.20;;;10.10;99.90;;;;;;5093901;28;20124;-77
2021/11/11 09:44:24;;;;;;;24.15;12.30;;;10.10;99.90;;;;;;5099778;28;20225;-78
2021/11/11 09:46:50;;;;;;;27.75;18.35;;;10.10;99.90;;;;;;5094317;28;20059;-79
2021/11/11 09:49:20;;;;;;;34.03;13.90;;;10.20;99.90;;;;;;5092198;28;20529;-79
2021/11/11 09:51:46;;;;;;;19.75;11.77;;;10.20;99.90;;;;;;5092939;28;20111;-78
2021/11/11 09:59:31;;;;;;;34.38;14.20;;;10.20;99.90;;;;;;5084130;28;20049;-79
2021/11/11 10:01:58;;;;;;;28.40;13.65;;;10.20;99.90;;;;;;5092798;28;20040;-78
2021/11/11 10:04:24;;;;;;;17.85;10.98;;;10.20;99.90;;;;;;5058979;28;20036;-78
2021/11/11 10:06:50;;;;;;;22.10;10.70;;;10.20;99.90;;;;;;5098843;28;20051;-78
2021/11/11 10:09:21;;;;;;;42.70;16.20;;;10.10;99.90;;;;;;5089211;28;20040;-78
2021/11/11 10:12:06;;;;;;;27.27;10.23;;;10.20;99.90;;;;;;5073864;28;20112;-79
2021/11/11 10:14:40;;;;;;;19.08;11.23;;;10.10;99.90;;;;;;5074639;28;20036;-79
2021/11/11 10:17:12;;;;;;;29.20;16.23;;;10.20;99.90;;;;;;5089004;28;20567;-78
2021/11/11 10:19:40;;;;;;;21.33;14.30;;;10.20;99.90;;;;;;5085848;28;20088;-79
2021/11/11 10:22:23;;;;;;;26.42;13.07;;;10.20;99.90;;;;;;5090821;28;20417;-77
2021/11/11 10:25:01;;;;;;;25.25;13.90;;;10.20;99.90;;;;;;5084434;28;20047;-77
2021/11/11 10:27:33;;;;;;;30.15;15.50;;;10.30;99.90;;;;;;5081728;28;20059;-79
2021/11/11 10:30:05;;;;;;;19.17;10.90;;;10.30;99.90;;;;;;5087020;28;20044;-80
2021/11/11 10:32:49;;;;;;;34.10;15.25;;;10.30;99.90;;;;;;5090469;28;20485;-80
2021/11/11 10:35:31;;;;;;;22.38;12.23;;;10.30;99.90;;;;;;5091716;28;20104;-79
2021/11/11 10:38:06;;;;;;;20.92;11.40;;;10.30;99.90;;;;;;5088580;28;20067;-82
2021/11/11 10:40:35;;;;;;;21.95;12.30;;;10.30;99.90;;;;;;5075385;28;20040;-79
2021/11/11 10:43:07;;;;;;;26.73;14.05;;;10.40;99.90;;;;;;5081993;28;20055;-82
2021/11/11 10:45:35;;;;;;;21.90;10.70;;;10.40;99.90;;;;;;5069951;28;20056;-79
2021/11/11 10:48:05;;;;;;;16.27;10.30;;;10.40;99.90;;;;;;5090434;28;20036;-78
2021/11/11 10:50:38;;;;;;;15.38;11.10;;;10.50;99.90;;;;;;5085928;28;20105;-77
2021/11/11 10:53:06;;;;;;;13.90;8.80;;;10.80;99.90;;;;;;5090898;28;20127;-77
2021/11/11 10:55:58;;;;;;;22.75;13.40;;;;;;;;;;5091407;28;20051;-80
2021/11/11 10:58:26;;;;;;;19.65;9.90;;;10.80;99.90;;;;;;5084507;28;20393;-78
2021/11/11 11:00:58;;;;;;;28.98;12.55;;;10.80;99.90;;;;;;5088622;28;20103;-76
2021/11/11 11:03:32;;;;;;;24.38;11.93;;;10.90;99.90;;;;;;5091871;28;20044;-77
2021/11/11 11:06:11;;;;;;;26.20;11.77;;;10.90;99.90;;;;;;5079904;28;20113;-79
2021/11/11 11:08:40;;;;;;;18.75;10.32;;;10.90;99.90;;;;;;5090038;28;20047;-77
2021/11/11 11:11:18;;;;;;;23.40;12.65;;;10.90;99.90;;;;;;5084448;28;20116;-77
2021/11/11 11:13:47;;;;;;;20.00;11.00;;;10.90;99.90;;;;;;5087450;28;20071;-79
2021/11/11 11:16:15;;;;;;;20.50;10.90;;;10.90;99.90;;;;;;5069814;28;20037;-77
2021/11/11 11:18:45;;;;;;;22.98;10.60;;;11.00;99.90;;;;;;5083214;28;20036;-77
2021/11/11 11:21:13;;;;;;;14.13;9.40;;;11.00;99.90;;;;;;5086651;28;20074;-78
2021/11/11 11:23:45;;;;;;;21.73;11.93;;;11.10;99.90;;;;;;5089543;28;20051;-78
2021/11/11 11:26:17;;;;;;;20.73;9.85;;;11.10;99.90;;;;;;5085973;28;20138;-80
2021/11/11 11:32:26;;;;;;;14.98;9.55;;;11.20;99.90;;;;;;5060297;28;20040;-79
2021/11/11 11:34:55;;;;;;;17.58;8.80;;;11.20;99.90;;;;;;5078609;28;20104;-78
2021/11/11 11:37:28;;;;;;;20.30;9.20;;;11.30;99.90;;;;;;5069771;28;20040;-79
2021/11/11 11:40:24;;;;;;;13.88;8.60;;;11.30;99.90;;;;;;5068660;28;20044;-77
2021/11/11 11:42:54;;;;;;;22.83;9.20;;;11.30;99.90;;;;;;5082612;28;20055;-80
2021/11/11 11:45:23;;;;;;;19.42;10.40;;;11.30;99.90;;;;;;5075312;28;20056;-78
2021/11/11 11:47:56;;;;;;;13.90;7.57;;;11.30;99.90;;;;;;5069175;28;20048;-79
2021/11/11 11:50:31;;;;;;;15.05;9.77;;;11.30;99.90;;;;;;5086839;28;20040;-78
2021/11/11 11:53:03;;;;;;;17.02;8.30;;;11.20;99.90;;;;;;5087716;28;20582;-78
2021/11/11 11:55:39;;;;;;;12.05;8.77;;;11.20;99.90;;;;;;5091387;28;20036;-80
2021/11/11 11:58:13;;;;;;;16.25;8.88;;;11.30;99.90;;;;;;5090251;28;20044;-77
2021/11/11 12:40:02;;;;;;;17.95;7.82;;;11.70;99.90;;;;;;5063673;28;20036;-81
2021/11/11 12:42:49;;;;;;;12.75;7.45;;;11.80;99.90;;;;;;5063823;28;20097;-80
2021/11/11 12:45:30;;;;;;;10.27;6.55;;;11.80;99.90;;;;;;5069135;28;20516;-79
2021/11/11 12:48:10;;;;;;;11.05;7.10;;;11.80;99.90;;;;;;5070811;28;20051;-79
2021/11/11 12:50:51;;;;;;;11.75;7.70;;;11.80;99.90;;;;;;5077509;28;20048;-80
2021/11/11 12:53:17;;;;;;;11.68;7.55;;;11.80;99.90;;;;;;5081339;28;20485;-78
2021/11/11 12:55:47;;;;;;;7.65;6.05;;;11.80;99.90;;;;;;5087175;28;20040;-78
2021/11/11 12:58:16;;;;;;;10.15;5.88;;;11.80;99.90;;;;;;5079599;28;20058;-80
2021/11/11 13:00:48;;;;;;;18.70;5.53;;;11.90;99.90;;;;;;5089213;28;20051;-77
2021/11/11 13:03:15;;;;;;;14.13;7.57;;;11.90;99.90;;;;;;5095423;28;20044;-82
2021/11/11 13:05:54;;;;;;;13.40;6.88;;;12.00;99.90;;;;;;5083630;28;20079;-84
2021/11/11 13:08:44;;;;;;;6.20;4.55;;;12.00;99.90;;;;;;5075083;28;20119;-81
2021/11/11 13:11:11;;;;;;;16.08;6.25;;;12.10;99.90;;;;;;5081363;28;20085;-81
2021/11/11 13:13:39;;;;;;;8.73;6.32;;;12.10;99.90;;;;;;5081481;28;20040;-81
2021/11/11 13:16:17;;;;;;;14.70;7.75;;;12.10;99.90;;;;;;5098824;28;20072;-82
2021/11/11 13:18:50;;;;;;;13.02;6.95;;;12.10;99.90;;;;;;5095196;28;20396;-83
2021/11/11 13:21:24;;;;;;;10.05;6.18;;;12.10;99.90;;;;;;5067554;28;20374;-83
2021/11/11 13:24:35;;;;;;;12.68;5.63;;;12.20;99.90;;;;;;5096155;28;20118;-81
2021/11/11 15:44:53;;;;;;;21.08;12.90;;;11.50;99.90;;;;;;5091411;28;20091;-80
2021/11/11 16:25:09;;;;;;;13.80;10.32;;;10.90;99.90;;;;;;5085032;28;20115;-82
2021/11/11 16:27:37;;;;;;;22.83;12.40;;;10.90;99.90;;;;;;5070909;28;20127;-82
2021/11/11 16:30:23;;;;;;;29.65;14.77;;;10.90;99.90;;;;;;5086928;28;20040;-81
2021/11/11 16:32:51;;;;;;;20.58;11.38;;;10.90;99.90;;;;;;5089380;28;20510;-80
2021/11/11 16:35:21;;;;;;;27.45;15.90;;;10.90;99.90;;;;;;5083083;28;20051;-82
2021/11/11 16:37:47;;;;;;;16.27;12.10;;;10.90;99.90;;;;;;5066877;28;20098;-82
2021/11/11 16:40:19;;;;;;;22.90;10.88;;;10.90;99.90;;;;;;5085870;28;20492;-80
2021/11/11 16:42:46;;;;;;;21.65;11.80;;;10.90;99.90;;;;;;5079168;28;20082;-83
2021/11/11 16:45:14;;;;;;;14.75;11.38;;;10.80;99.90;;;;;;5065960;28;20060;-84
2021/11/11 16:47:40;;;;;;;22.33;11.25;;;10.80;99.90;;;;;;5089590;28;20055;-82
2021/11/11 16:50:06;;;;;;;28.67;13.60;;;10.80;99.90;;;;;;5071764;28;20044;-80
2021/11/11 16:52:32;;;;;;;17.20;11.82;;;10.80;99.90;;;;;;5070737;28;20397;-85
2021/11/11 16:54:57;;;;;;;24.10;13.27;;;10.70;99.90;;;;;;5073874;28;20040;-80
2021/11/11 16:57:23;;;;;;;18.58;11.52;;;10.80;99.90;;;;;;5088307;28;20044;-80
2021/11/11 16:59:49;;;;;;;22.35;13.23;;;10.80;99.90;;;;;;5072695;28;20047;-82
2021/11/11 17:02:15;;;;;;;20.25;13.00;;;10.80;99.90;;;;;;5079015;28;20063;-85